Startpagina
METAR-TAF:

METAR-TAF

Vliegvelden :

Locarno, Zwitserland

breedte: 46-09-55N, lengte: 8-52-40E, hoogte: 198 m

Actueel weer

Dit bericht is 36 minuten geleden gemaakt, om 14:50 UTC
Wind 5 kt uit het westzuidwesten
Temperatuur 14°C
Vochtigheid 77%
Druk 1009 hPa
Zicht 10 km of meer
Verspreide wolken op 4200 ft
Verspreide wolken op 5900 ft
Geheel bewolkt op 6800 ft
lichte regenbuien

METAR: LSZL 061450Z 24005KT 9999 -SHRA SCT042 SCT059 OVC068 14/10 Q1009 RMK BLU

Tijdstip: 17:26 (15:26 UTC)

Verwachting

Dit bericht is 4 uur en het 1 minuten geleden gemaakt, om 11:25 UTC
Verwachting geldig van 06 om 12 UTC tot 06 om 21 UTC
Wind 5 kt uit het westzuidwesten
Zicht 10 km of meer
Verspreide wolken op 12000 ft
Kans 30%
van 06 om 12 UTC tot 06 om 16 UTC
regen
Wijzigt naar
van 06 om 15 UTC tot 06 om 18 UTC
regen

TAF: LSZL 061125Z 0612/0621 25005KT 9999 SCT120 PROB30 0612/0616 RA BECMG 0615/0618 RA

Waarnemingen en weersverwachtingen van meer dan 4000 vliegvelden (METAR en TAF).

De beschikbare stations zijn de gele en rode punten op de kaart.

Ga met uw muis naar het station om de naam te zien.

Klik dan om waarnemingen en weersverwachtingen te zien.

kaart wijzigen: klik op de groene knoppen met een zwart kruis om in te zoomen, op de groene knop met een streepje om uit te zoomen of op de groene pijlen voor aangrenzende kaarten.


METAR-TAF: